Time;durP1;ratioP1;P1;durP2;ratioP2;P2;SDS_P1;SDS_P2;PMS_P1;PMS_P2;Temp;Humidity;BMP_temperature;BMP_pressure;BME280_temperature;BME280_humidity;BME280_pressure;Samples;Min_cycle;Max_cycle;Signal;HPM_P1;HPM_P2
2023/03/25 00:01:33;;;;;;;2.10;0.70;;;8.60;99.90;;;;;;4992619;28;20105;-59
2023/03/25 00:04:00;;;;;;;4.28;1.35;;;8.50;99.90;;;;;;4999696;28;20597;-60
2023/03/25 00:06:27;;;;;;;2.05;0.90;;;8.40;99.90;;;;;;4998234;28;20082;-60
2023/03/25 00:08:53;;;;;;;2.38;0.90;;;8.40;99.90;;;;;;4998063;28;20030;-59
2023/03/25 00:11:19;;;;;;;1.63;1.02;;;8.40;99.90;;;;;;4998392;28;20045;-60
2023/03/25 00:13:46;;;;;;;0.60;0.40;;;8.30;99.90;;;;;;4997982;28;20748;-60
2023/03/25 00:16:13;;;;;;;2.70;0.73;;;8.30;99.90;;;;;;4994564;28;20064;-59
2023/03/25 00:18:39;;;;;;;1.50;1.02;;;8.30;99.90;;;;;;4998720;28;20049;-60
2023/03/25 00:21:09;;;;;;;1.15;0.70;;;8.20;99.90;;;;;;5000703;28;20486;-59
2023/03/25 00:23:37;;;;;;;2.83;0.63;;;8.10;99.90;;;;;;4996418;28;20038;-60
2023/03/25 00:26:03;;;;;;;2.53;0.90;;;8.10;99.90;;;;;;4996484;28;20022;-60
2023/03/25 00:28:32;;;;;;;3.45;0.70;;;8.00;99.90;;;;;;4996112;28;20387;-60
2023/03/25 00:30:59;;;;;;;0.77;0.68;;;8.00;99.90;;;;;;4998762;28;20080;-60
2023/03/25 00:33:26;;;;;;;2.70;0.73;;;8.00;99.90;;;;;;4996271;28;20429;-60
2023/03/25 00:35:53;;;;;;;1.77;0.70;;;7.90;99.90;;;;;;4998079;28;20022;-60
2023/03/25 00:38:19;;;;;;;3.25;0.90;;;7.80;99.90;;;;;;4996196;28;20026;-60
2023/03/25 00:40:45;;;;;;;2.05;0.88;;;7.80;99.90;;;;;;4997334;28;20030;-60
2023/03/25 00:43:11;;;;;;;1.98;1.33;;;7.70;99.90;;;;;;4997299;28;20076;-60
2023/03/25 00:45:37;;;;;;;4.88;0.60;;;7.70;99.90;;;;;;4993742;28;20022;-61
2023/03/25 00:48:02;;;;;;;4.30;0.93;;;7.60;99.90;;;;;;4996213;28;20032;-61
2023/03/25 00:50:28;;;;;;;1.48;0.52;;;7.50;99.90;;;;;;4998509;28;20033;-60
2023/03/25 00:52:54;;;;;;;3.40;0.82;;;7.50;99.90;;;;;;4997258;28;20026;-60
2023/03/25 00:55:20;;;;;;;3.80;0.70;;;7.30;99.90;;;;;;4996585;28;20042;-60
2023/03/25 00:57:46;;;;;;;3.83;0.68;;;7.20;99.90;;;;;;4998644;28;20077;-59
2023/03/25 01:00:14;;;;;;;3.75;0.75;;;7.20;99.90;;;;;;4999270;28;20656;-60
2023/03/25 01:02:41;;;;;;;5.78;0.90;;;7.10;99.90;;;;;;4997049;28;20041;-60
2023/03/25 01:05:10;;;;;;;4.32;1.02;;;7.10;99.90;;;;;;4996985;28;20591;-60
2023/03/25 01:07:38;;;;;;;0.85;0.80;;;7.10;99.90;;;;;;4997162;28;20058;-60
2023/03/25 01:10:05;;;;;;;3.40;0.85;;;7.20;99.90;;;;;;4997397;28;20111;-59
2023/03/25 01:12:30;;;;;;;1.50;0.70;;;7.20;99.90;;;;;;4997405;28;20117;-61
2023/03/25 01:14:56;;;;;;;1.67;1.05;;;7.20;99.90;;;;;;4995458;28;20562;-59
2023/03/25 01:17:22;;;;;;;1.95;0.70;;;7.20;99.90;;;;;;4996633;28;20029;-61
2023/03/25 01:19:48;;;;;;;3.90;1.33;;;7.20;99.90;;;;;;4996539;28;20499;-60
2023/03/25 01:22:14;;;;;;;0.60;0.60;;;7.30;99.90;;;;;;4996126;28;20034;-60
2023/03/25 01:24:40;;;;;;;2.45;0.80;;;7.30;99.90;;;;;;4996056;28;20026;-60
2023/03/25 01:27:05;;;;;;;1.85;0.60;;;7.30;99.90;;;;;;4994032;28;20069;-60
2023/03/25 01:29:31;;;;;;;4.20;1.02;;;7.30;99.90;;;;;;4995726;28;20041;-59
2023/03/25 01:31:57;;;;;;;3.10;1.10;;;7.40;99.90;;;;;;4995388;28;20073;-60
2023/03/25 01:34:23;;;;;;;2.15;1.20;;;7.50;99.90;;;;;;4995349;28;20020;-60
2023/03/25 01:36:49;;;;;;;2.70;1.25;;;7.60;99.90;;;;;;4995493;28;20052;-61
2023/03/25 01:39:17;;;;;;;3.35;1.10;;;7.70;99.90;;;;;;4998406;28;20109;-60
2023/03/25 01:41:45;;;;;;;2.05;1.25;;;7.90;99.90;;;;;;4999051;28;20498;-60
2023/03/25 01:44:13;;;;;;;4.13;1.20;;;7.90;99.90;;;;;;4995380;28;20592;-59
2023/03/25 01:46:43;;;;;;;2.25;0.80;;;7.90;99.90;;;;;;4996032;28;20037;-60
2023/03/25 01:49:32;;;;;;;1.83;1.00;;;7.90;99.90;;;;;;4995712;28;20027;-60
2023/03/25 01:52:03;;;;;;;1.83;0.65;;;7.80;99.90;;;;;;4993117;28;20092;-60
2023/03/25 01:54:29;;;;;;;1.40;0.80;;;7.80;99.90;;;;;;4990365;28;20118;-61
2023/03/25 01:56:55;;;;;;;1.17;0.70;;;7.80;99.90;;;;;;4997630;28;20030;-60
2023/03/25 01:59:27;;;;;;;2.35;0.90;;;7.80;99.90;;;;;;4999156;28;20022;-60
2023/03/25 02:01:55;;;;;;;6.25;2.05;;;7.80;99.90;;;;;;4993828;28;20062;-60
2023/03/25 02:04:44;;;;;;;1.17;1.08;;;7.80;99.90;;;;;;4997546;28;20014;-59
2023/03/25 02:07:10;;;;;;;3.35;1.08;;;7.80;99.90;;;;;;4996318;28;20023;-59
2023/03/25 02:09:37;;;;;;;1.70;0.90;;;7.80;99.90;;;;;;4996355;28;20022;-61
2023/03/25 02:12:03;;;;;;;2.92;1.30;;;7.70;99.90;;;;;;4996533;28;20057;-60
2023/03/25 02:14:33;;;;;;;4.32;1.30;;;7.60;99.90;;;;;;4994624;28;20257;-60
2023/03/25 02:17:14;;;;;;;3.58;1.30;;;7.60;99.90;;;;;;4991682;28;20077;-60
2023/03/25 02:20:13;;;;;;;3.10;1.65;;;7.60;99.90;;;;;;4995995;28;20027;-60
2023/03/25 02:23:09;;;;;;;3.10;1.15;;;7.60;99.90;;;;;;4994874;28;20030;-60
2023/03/25 02:25:44;;;;;;;2.58;1.20;;;7.60;99.90;;;;;;4996160;28;20050;-61
2023/03/25 02:28:35;;;;;;;2.05;1.15;;;7.60;99.90;;;;;;4997961;28;20033;-60
2023/03/25 02:31:24;;;;;;;1.80;1.70;;;7.60;99.90;;;;;;4995585;28;20113;-60
2023/03/25 02:34:08;;;;;;;2.70;1.30;;;7.60;99.90;;;;;;4992874;28;20270;-60
2023/03/25 02:36:55;;;;;;;2.85;1.67;;;7.60;99.90;;;;;;4996589;28;20388;-60
2023/03/25 02:39:30;;;;;;;3.10;1.17;;;7.60;99.90;;;;;;4994411;28;20034;-59
2023/03/25 02:42:04;;;;;;;1.77;1.30;;;7.60;99.90;;;;;;4996437;28;20034;-59
2023/03/25 02:44:38;;;;;;;3.15;1.30;;;7.60;99.90;;;;;;4999222;28;20030;-60
2023/03/25 02:47:09;;;;;;;3.47;1.30;;;7.70;99.90;;;;;;5000542;28;20026;-60
2023/03/25 02:49:44;;;;;;;3.72;1.30;;;7.70;99.90;;;;;;4997559;28;20033;-60
2023/03/25 02:52:33;;;;;;;1.75;1.65;;;7.70;99.90;;;;;;4999527;28;20062;-59
2023/03/25 02:55:03;;;;;;;3.17;1.10;;;7.80;99.90;;;;;;4999917;28;20017;-59
2023/03/25 02:57:32;;;;;;;1.27;1.10;;;7.80;99.90;;;;;;5000548;28;20026;-60
2023/03/25 02:59:59;;;;;;;1.85;1.00;;;7.80;99.90;;;;;;4998026;28;20399;-59
2023/03/25 03:02:28;;;;;;;2.45;1.20;;;7.90;99.90;;;;;;4997795;28;20045;-60
2023/03/25 03:04:56;;;;;;;1.65;1.10;;;7.90;99.90;;;;;;4998896;28;20037;-59
2023/03/25 03:07:31;;;;;;;1.63;0.90;;;7.90;99.90;;;;;;4995074;28;20033;-60
2023/03/25 03:10:21;;;;;;;3.63;1.20;;;8.00;99.90;;;;;;5000802;28;20367;-59
2023/03/25 03:13:11;;;;;;;2.15;0.90;;;8.00;99.90;;;;;;4999385;28;20457;-60
2023/03/25 03:16:00;;;;;;;1.35;1.00;;;8.00;99.90;;;;;;5003062;28;20042;-59
2023/03/25 03:18:57;;;;;;;2.90;1.15;;;8.10;99.90;;;;;;5004984;28;20030;-59
2023/03/25 03:21:38;;;;;;;2.17;0.90;;;8.10;99.90;;;;;;5000252;28;20121;-60
2023/03/25 03:24:32;;;;;;;4.03;0.98;;;8.20;99.90;;;;;;4997746;28;20053;-61
2023/03/25 03:26:57;;;;;;;1.88;0.93;;;8.10;99.90;;;;;;5000776;28;20049;-61
2023/03/25 03:29:37;;;;;;;2.35;0.98;;;8.20;99.90;;;;;;4999196;28;20993;-60
2023/03/25 03:32:17;;;;;;;2.85;0.93;;;8.20;99.90;;;;;;4998565;28;20048;-59
2023/03/25 03:34:53;;;;;;;2.40;0.93;;;8.20;99.90;;;;;;4999323;28;20041;-60
2023/03/25 03:37:26;;;;;;;2.42;0.90;;;8.10;99.90;;;;;;4997749;28;20383;-61
2023/03/25 03:39:56;;;;;;;1.60;1.00;;;8.20;99.90;;;;;;4995339;28;20077;-59
2023/03/25 03:42:29;;;;;;;3.55;1.00;;;8.20;99.90;;;;;;4995925;28;20032;-60
2023/03/25 03:45:17;;;;;;;1.85;1.00;;;8.20;99.90;;;;;;5012179;28;20478;-60
2023/03/25 03:47:47;;;;;;;1.48;0.98;;;8.20;99.90;;;;;;4994593;28;20052;-60
2023/03/25 03:50:35;;;;;;;3.63;1.00;;;8.20;99.90;;;;;;4998318;28;20041;-59
2023/03/25 03:53:05;;;;;;;2.78;0.82;;;8.20;99.90;;;;;;4997780;28;20494;-60
2023/03/25 03:55:41;;;;;;;2.58;1.02;;;8.20;99.90;;;;;;4999677;28;20042;-59
2023/03/25 03:58:14;;;;;;;1.90;0.70;;;8.20;99.90;;;;;;4981173;28;20026;-61
2023/03/25 04:00:49;;;;;;;3.72;1.08;;;8.20;99.90;;;;;;4997336;28;20034;-59
2023/03/25 04:03:23;;;;;;;4.57;1.15;;;8.10;99.90;;;;;;4997082;28;20038;-59
2023/03/25 04:05:56;;;;;;;2.47;1.10;;;8.00;99.90;;;;;;4996769;28;20170;-59
2023/03/25 04:08:31;;;;;;;5.15;1.25;;;8.00;99.90;;;;;;4994624;28;20022;-60
2023/03/25 04:11:20;;;;;;;4.50;1.10;;;8.00;99.90;;;;;;4996455;28;20398;-59
2023/03/25 04:13:51;;;;;;;5.32;1.23;;;8.00;99.90;;;;;;4999051;28;20026;-59
2023/03/25 04:16:16;;;;;;;6.23;1.50;;;8.00;99.90;;;;;;4998083;28;20030;-60
2023/03/25 04:18:46;;;;;;;1.35;0.77;;;8.10;99.90;;;;;;4995993;28;20037;-60
2023/03/25 04:21:14;;;;;;;5.05;1.38;;;8.10;99.90;;;;;;4998326;28;20030;-60
2023/03/25 04:23:40;;;;;;;6.18;1.08;;;8.10;99.90;;;;;;4995610;28;20026;-59
2023/03/25 04:26:06;;;;;;;3.17;0.80;;;8.00;99.90;;;;;;5000260;28;20553;-59
2023/03/25 04:28:31;;;;;;;3.38;1.02;;;8.00;99.90;;;;;;4995637;28;20031;-59
2023/03/25 04:30:59;;;;;;;2.85;1.27;;;8.00;99.90;;;;;;4995906;28;20034;-59
2023/03/25 04:33:25;;;;;;;3.95;1.00;;;7.90;99.90;;;;;;4997278;28;20026;-60
2023/03/25 04:35:51;;;;;;;3.08;1.20;;;7.80;99.90;;;;;;4999606;28;20495;-59
2023/03/25 04:38:18;;;;;;;3.20;1.02;;;7.70;99.90;;;;;;4996252;28;20083;-60
2023/03/25 04:40:47;;;;;;;2.83;1.50;;;7.70;99.90;;;;;;4998972;28;20105;-60
2023/03/25 04:43:14;;;;;;;3.40;1.10;;;7.60;99.90;;;;;;4996692;28;20033;-60
2023/03/25 04:45:47;;;;;;;5.28;1.92;;;7.50;99.90;;;;;;4998030;28;20010;-60
2023/03/25 04:48:32;;;;;;;4.57;1.25;;;7.50;99.90;;;;;;4995881;28;20410;-60
2023/03/25 04:51:00;;;;;;;4.95;1.55;;;7.40;99.90;;;;;;4995841;28;20035;-60
2023/03/25 04:53:27;;;;;;;4.53;1.23;;;7.40;99.90;;;;;;4996900;28;20026;-61
2023/03/25 04:55:53;;;;;;;2.55;1.30;;;7.30;99.90;;;;;;4999228;28;20032;-60
2023/03/25 04:58:19;;;;;;;2.10;1.25;;;7.40;99.90;;;;;;4994818;28;20069;-60
2023/03/25 05:00:50;;;;;;;7.20;1.63;;;7.30;99.90;;;;;;4993365;28;20026;-60
2023/03/25 05:03:22;;;;;;;4.00;2.33;;;7.30;99.90;;;;;;4998482;28;20034;-61
2023/03/25 05:05:49;;;;;;;6.55;1.90;;;7.30;99.90;;;;;;4996671;28;20034;-61
2023/03/25 05:08:15;;;;;;;8.45;1.88;;;7.30;99.90;;;;;;4998076;28;20141;-60
2023/03/25 05:10:42;;;;;;;3.47;1.77;;;7.30;99.90;;;;;;4999085;28;20134;-60
2023/03/25 05:13:08;;;;;;;3.05;1.42;;;7.30;99.90;;;;;;4998411;28;20026;-61
2023/03/25 05:15:38;;;;;;;3.78;1.30;;;7.30;99.90;;;;;;4996833;28;20116;-60
2023/03/25 05:18:12;;;;;;;5.97;1.50;;;7.20;99.90;;;;;;4994617;28;20089;-60
2023/03/25 05:20:39;;;;;;;3.55;1.10;;;7.20;99.90;;;;;;4997738;28;20033;-60
2023/03/25 05:23:11;;;;;;;3.20;1.48;;;7.20;99.90;;;;;;4995194;28;20030;-60
2023/03/25 05:25:40;;;;;;;1.60;1.25;;;7.10;99.90;;;;;;4992964;28;20036;-61
2023/03/25 05:28:08;;;;;;;2.15;1.30;;;7.10;99.90;;;;;;4998647;28;20041;-60
2023/03/25 05:30:40;;;;;;;3.15;0.98;;;7.10;99.90;;;;;;5001852;28;20076;-60
2023/03/25 05:33:09;;;;;;;2.20;0.73;;;7.00;99.90;;;;;;5009100;28;20053;-60
2023/03/25 05:35:36;;;;;;;2.10;1.10;;;7.00;99.90;;;;;;5003560;28;20037;-60
2023/03/25 05:38:03;;;;;;;2.08;0.70;;;6.90;99.90;;;;;;4999175;28;20043;-60
2023/03/25 05:40:29;;;;;;;1.38;0.80;;;6.90;99.90;;;;;;5000478;28;20035;-61
2023/03/25 05:42:55;;;;;;;1.30;0.73;;;7.00;99.90;;;;;;5000383;28;20182;-60
2023/03/25 05:45:21;;;;;;;2.05;0.85;;;7.00;99.90;;;;;;4999520;28;20086;-60
2023/03/25 05:47:47;;;;;;;2.30;1.00;;;7.00;99.90;;;;;;4995008;28;20495;-60
2023/03/25 05:50:16;;;;;;;2.38;0.90;;;6.90;99.90;;;;;;4996290;28;20040;-59
2023/03/25 05:52:42;;;;;;;3.03;1.10;;;7.00;99.90;;;;;;4997753;28;20473;-60
2023/03/25 05:55:16;;;;;;;2.47;1.02;;;7.00;99.90;;;;;;4996211;28;20052;-60
2023/03/25 05:57:42;;;;;;;2.22;0.95;;;7.10;99.90;;;;;;4994867;28;20042;-61
2023/03/25 06:00:11;;;;;;;2.13;0.90;;;7.10;99.90;;;;;;4995849;28;20022;-59
2023/03/25 06:02:38;;;;;;;3.63;1.10;;;7.10;99.90;;;;;;4995314;28;20023;-61
2023/03/25 06:05:08;;;;;;;1.08;0.93;;;7.10;99.90;;;;;;4994448;28;20102;-60
2023/03/25 06:07:36;;;;;;;2.08;0.93;;;7.10;99.90;;;;;;4994792;28;20030;-60
2023/03/25 06:10:04;;;;;;;2.58;0.90;;;7.10;99.90;;;;;;4996660;28;20041;-60
2023/03/25 06:12:31;;;;;;;2.47;0.70;;;7.20;99.90;;;;;;4999953;28;20113;-60
2023/03/25 06:14:58;;;;;;;1.98;0.90;;;7.20;99.90;;;;;;5000109;28;20076;-60
2023/03/25 06:17:24;;;;;;;1.35;0.73;;;7.20;99.90;;;;;;4998786;28;20031;-60
2023/03/25 06:19:51;;;;;;;2.63;0.73;;;7.30;99.90;;;;;;4999775;28;20037;-62
2023/03/25 06:22:19;;;;;;;4.13;0.70;;;7.30;99.90;;;;;;5001171;28;20034;-60
2023/03/25 06:24:47;;;;;;;3.88;0.60;;;7.30;99.90;;;;;;4996585;28;20057;-60
2023/03/25 06:27:16;;;;;;;2.60;1.00;;;7.30;99.90;;;;;;4995814;28;20505;-60
2023/03/25 06:29:43;;;;;;;2.72;0.77;;;7.30;99.90;;;;;;4998652;28;20072;-60
2023/03/25 06:32:11;;;;;;;3.60;0.70;;;7.30;99.90;;;;;;4997669;28;20035;-60
2023/03/25 06:34:38;;;;;;;3.67;0.90;;;7.30;99.90;;;;;;4997243;28;20557;-60
2023/03/25 06:37:04;;;;;;;2.22;0.75;;;7.30;99.90;;;;;;4997854;28;20589;-60
2023/03/25 06:39:30;;;;;;;2.08;1.02;;;7.30;99.90;;;;;;4996266;28;20576;-60
2023/03/25 06:42:03;;;;;;;2.55;0.65;;;7.40;99.90;;;;;;4997190;28;20601;-60
2023/03/25 06:44:28;;;;;;;2.90;0.80;;;7.30;99.90;;;;;;4996970;28;20446;-59
2023/03/25 06:46:54;;;;;;;2.70;0.70;;;7.40;99.90;;;;;;4994548;28;20035;-59
2023/03/25 06:49:20;;;;;;;2.30;0.82;;;7.50;99.90;;;;;;5000800;28;20030;-60
2023/03/25 06:51:46;;;;;;;1.67;0.50;;;7.50;99.90;;;;;;4997268;28;20113;-60
2023/03/25 06:54:11;;;;;;;9.15;1.00;;;7.50;99.90;;;;;;4999844;28;20049;-60
2023/03/25 06:56:37;;;;;;;2.15;0.60;;;7.50;99.90;;;;;;4999263;28;20113;-61
2023/03/25 06:59:04;;;;;;;1.42;0.70;;;7.60;99.90;;;;;;4997262;28;20037;-60
2023/03/25 07:01:29;;;;;;;1.35;0.73;;;7.60;99.90;;;;;;5000282;28;20044;-60
2023/03/25 07:03:55;;;;;;;1.63;0.50;;;7.60;99.90;;;;;;4997594;28;20093;-59
2023/03/25 07:06:22;;;;;;;1.20;0.73;;;7.60;99.90;;;;;;4998846;28;20059;-60
2023/03/25 07:08:48;;;;;;;4.63;1.00;;;7.60;99.90;;;;;;4998553;28;20050;-60
2023/03/25 07:11:15;;;;;;;4.30;0.90;;;7.60;99.90;;;;;;4999054;28;20414;-59
2023/03/25 07:13:41;;;;;;;2.58;0.80;;;7.60;99.90;;;;;;4998173;28;20034;-59
2023/03/25 07:16:08;;;;;;;1.58;0.60;;;7.60;99.90;;;;;;5001117;28;20033;-60
2023/03/25 07:18:33;;;;;;;1.73;0.68;;;7.60;99.90;;;;;;4998723;28;20038;-60
2023/03/25 07:20:59;;;;;;;2.53;1.13;;;7.70;99.90;;;;;;4996338;28;20069;-60
2023/03/25 07:23:25;;;;;;;1.08;0.82;;;7.70;99.90;;;;;;4996799;28;20033;-60
2023/03/25 07:25:51;;;;;;;4.75;1.00;;;7.70;99.90;;;;;;5000170;28;20038;-60
2023/03/25 07:28:16;;;;;;;2.05;0.70;;;7.70;99.90;;;;;;4996345;28;20098;-60
2023/03/25 07:30:42;;;;;;;1.13;0.50;;;7.80;99.90;;;;;;4998928;28;20410;-60
2023/03/25 07:33:09;;;;;;;1.45;0.65;;;7.80;99.90;;;;;;4997153;28;20050;-61
2023/03/25 07:35:34;;;;;;;2.65;0.90;;;7.90;99.90;;;;;;4998745;28;20405;-60
2023/03/25 07:38:01;;;;;;;2.30;0.73;;;7.90;99.90;;;;;;4997921;28;20022;-61
2023/03/25 07:40:27;;;;;;;2.05;0.75;;;7.90;99.90;;;;;;4997757;28;20021;-61
2023/03/25 07:42:52;;;;;;;3.58;0.60;;;7.90;99.90;;;;;;4996857;28;20035;-60
2023/03/25 07:45:18;;;;;;;3.28;0.60;;;7.90;99.90;;;;;;4996340;28;20053;-60
2023/03/25 07:47:48;;;;;;;4.07;0.73;;;8.00;99.90;;;;;;4995770;28;20038;-60
2023/03/25 07:50:15;;;;;;;0.70;0.57;;;8.00;99.90;;;;;;4998490;28;20034;-61
2023/03/25 07:52:42;;;;;;;1.65;0.57;;;8.10;99.90;;;;;;4995620;28;20026;-61
2023/03/25 07:55:08;;;;;;;1.50;0.68;;;8.10;99.90;;;;;;4997021;28;20030;-61
2023/03/25 07:57:34;;;;;;;2.53;0.60;;;8.20;99.90;;;;;;4994025;28;20030;-60
2023/03/25 08:00:00;;;;;;;3.65;0.70;;;8.40;99.90;;;;;;4996416;28;20530;-61
2023/03/25 08:02:25;;;;;;;2.40;0.70;;;8.60;99.90;;;;;;4998456;28;20034;-61
2023/03/25 08:04:53;;;;;;;0.90;0.80;;;8.70;99.90;;;;;;5000026;28;20027;-61
2023/03/25 08:07:19;;;;;;;2.80;0.77;;;8.70;99.90;;;;;;4998484;28;20471;-61
2023/03/25 08:09:45;;;;;;;2.20;0.80;;;8.50;99.90;;;;;;4998248;28;20036;-60
2023/03/25 08:12:10;;;;;;;3.28;0.88;;;8.40;99.90;;;;;;4994926;28;20583;-60
2023/03/25 08:14:36;;;;;;;1.75;1.33;;;8.30;99.90;;;;;;4996670;28;20073;-61
2023/03/25 08:17:03;;;;;;;2.33;0.90;;;8.30;99.90;;;;;;4999788;28;20037;-60
2023/03/25 08:19:29;;;;;;;2.95;1.05;;;8.40;99.90;;;;;;4997578;28;20041;-60
2023/03/25 08:21:54;;;;;;;1.48;0.77;;;8.30;99.90;;;;;;4996845;28;20025;-60
2023/03/25 08:24:20;;;;;;;4.32;0.90;;;8.40;99.90;;;;;;4996642;28;20027;-60
2023/03/25 08:26:46;;;;;;;2.45;0.82;;;8.50;99.90;;;;;;4996484;28;20022;-60
2023/03/25 08:29:16;;;;;;;3.33;0.90;;;8.60;99.90;;;;;;4995098;28;20777;-60
2023/03/25 08:31:45;;;;;;;3.28;0.90;;;8.50;99.90;;;;;;4998003;28;20049;-60
2023/03/25 08:34:11;;;;;;;2.20;0.80;;;8.50;99.90;;;;;;4998366;28;20041;-60
2023/03/25 08:36:38;;;;;;;2.20;0.60;;;8.50;99.90;;;;;;4996384;28;20026;-60
2023/03/25 08:39:10;;;;;;;0.75;0.65;;;8.70;99.90;;;;;;5000275;28;20502;-61
2023/03/25 08:41:37;;;;;;;1.65;0.55;;;9.00;99.90;;;;;;4997270;28;20089;-61
2023/03/25 08:44:03;;;;;;;0.93;0.68;;;9.20;99.90;;;;;;4994907;28;20121;-60
2023/03/25 08:46:29;;;;;;;3.00;0.60;;;9.30;99.90;;;;;;4997820;28;20037;-60
2023/03/25 08:48:55;;;;;;;2.17;0.80;;;9.40;99.90;;;;;;5001234;28;20025;-58
2023/03/25 08:51:21;;;;;;;3.05;0.80;;;9.50;99.90;;;;;;4996168;28;20034;-60
2023/03/25 08:53:46;;;;;;;3.42;0.95;;;9.50;99.90;;;;;;4996137;28;20029;-60
2023/03/25 08:56:12;;;;;;;4.97;0.70;;;9.60;99.90;;;;;;4994130;28;20033;-60
2023/03/25 08:58:38;;;;;;;1.38;0.57;;;9.70;99.90;;;;;;4996777;28;20542;-60
2023/03/25 09:01:05;;;;;;;2.00;0.60;;;9.80;99.90;;;;;;5000244;28;20079;-61
2023/03/25 09:03:31;;;;;;;1.13;0.65;;;9.80;99.90;;;;;;4998170;28;20033;-61
2023/03/25 09:05:57;;;;;;;2.10;0.90;;;9.70;99.90;;;;;;4997429;28;20030;-60
2023/03/25 09:08:23;;;;;;;2.63;0.73;;;9.60;99.90;;;;;;4995035;28;20064;-61
2023/03/25 09:10:49;;;;;;;4.28;0.70;;;9.50;99.90;;;;;;4996143;28;20042;-60
2023/03/25 09:13:15;;;;;;;3.33;0.90;;;9.60;99.90;;;;;;4994185;28;20474;-61
2023/03/25 09:15:42;;;;;;;2.20;0.70;;;9.70;99.90;;;;;;4996689;28;20026;-61
2023/03/25 09:18:09;;;;;;;1.25;0.73;;;10.00;99.90;;;;;;4994418;28;20592;-61
2023/03/25 09:20:34;;;;;;;1.48;0.70;;;10.70;99.90;;;;;;4996269;28;20043;-60
2023/03/25 09:23:00;;;;;;;2.13;0.95;;;11.20;99.90;;;;;;4995450;28;20038;-61
2023/03/25 09:25:26;;;;;;;2.13;0.80;;;11.20;99.90;;;;;;4995743;28;20033;-60
2023/03/25 09:27:51;;;;;;;4.88;0.68;;;10.70;99.90;;;;;;4997322;28;20018;-60
2023/03/25 09:30:17;;;;;;;2.88;0.57;;;10.30;99.90;;;;;;4995899;28;20164;-61
2023/03/25 09:32:43;;;;;;;1.63;0.70;;;10.00;99.90;;;;;;4995486;28;20048;-61
2023/03/25 09:35:09;;;;;;;4.15;0.88;;;9.80;99.90;;;;;;4995356;28;20617;-61
2023/03/25 09:37:35;;;;;;;7.32;1.02;;;9.60;99.90;;;;;;4993931;28;20050;-60
2023/03/25 09:40:01;;;;;;;2.00;1.00;;;10.10;99.90;;;;;;4997487;28;20045;-60
2023/03/25 09:42:29;;;;;;;1.35;0.60;;;10.90;99.90;;;;;;4996261;28;20093;-60
2023/03/25 09:45:17;;;;;;;5.22;1.27;;;11.50;99.90;;;;;;4995120;28;20065;-60
2023/03/25 09:47:58;;;;;;;2.80;0.80;;;11.80;99.90;;;;;;4997644;28;20026;-59
2023/03/25 09:50:25;;;;;;;4.28;0.90;;;11.60;99.90;;;;;;5000917;28;20034;-62
2023/03/25 09:52:59;;;;;;;3.78;0.77;;;11.10;99.90;;;;;;5002395;28;20030;-60
2023/03/25 09:55:33;;;;;;;4.70;1.42;;;10.50;99.90;;;;;;4999699;28;20095;-61
2023/03/25 09:58:25;;;;;;;3.50;1.00;;;10.10;99.90;;;;;;5000870;28;20022;-61
2023/03/25 10:01:33;;;;;;;4.68;0.70;;;10.00;99.90;;;;;;5000843;28;20141;-60
2023/03/25 10:04:28;;;;;;;2.30;0.90;;;9.90;99.90;;;;;;5007670;28;20076;-61
2023/03/25 10:07:09;;;;;;;3.75;1.00;;;10.00;99.90;;;;;;5008845;28;20052;-60
2023/03/25 10:09:41;;;;;;;1.80;0.85;;;10.10;99.90;;;;;;5001749;28;20049;-60
2023/03/25 10:12:31;;;;;;;2.60;1.20;;;10.00;99.90;;;;;;5000152;28;20049;-59
2023/03/25 10:15:20;;;;;;;2.05;0.73;;;9.80;99.90;;;;;;4998968;28;20549;-61
2023/03/25 10:18:14;;;;;;;5.63;1.17;;;9.70;99.90;;;;;;5001139;28;20121;-60
2023/03/25 10:20:50;;;;;;;7.80;1.48;;;9.60;99.90;;;;;;4998678;28;20526;-60
2023/03/25 10:23:28;;;;;;;5.03;1.70;;;9.30;99.90;;;;;;4997355;28;20104;-61
2023/03/25 10:26:07;;;;;;;3.50;1.10;;;9.30;99.90;;;;;;4999539;28;20022;-60
2023/03/25 10:28:42;;;;;;;3.92;1.30;;;9.40;99.90;;;;;;5000977;28;20549;-61
2023/03/25 10:31:15;;;;;;;4.57;1.15;;;9.60;99.90;;;;;;4999930;28;20499;-61
2023/03/25 10:33:50;;;;;;;4.60;0.90;;;10.00;99.90;;;;;;4998389;28;20030;-60
2023/03/25 10:36:18;;;;;;;2.33;0.70;;;10.50;99.90;;;;;;4999691;28;20072;-61
2023/03/25 10:38:47;;;;;;;6.13;1.20;;;10.90;99.90;;;;;;5000729;28;20511;-61
2023/03/25 10:41:21;;;;;;;6.07;1.20;;;11.00;99.90;;;;;;4999940;28;20038;-59
2023/03/25 10:43:49;;;;;;;5.72;1.50;;;11.10;99.90;;;;;;4998084;28;20030;-60
2023/03/25 10:46:46;;;;;;;7.00;1.08;;;11.10;99.90;;;;;;4998528;28;20045;-60
2023/03/25 10:49:16;;;;;;;8.82;1.30;;;11.20;99.90;;;;;;4998580;28;20536;-60
2023/03/25 10:51:42;;;;;;;9.30;1.58;;;11.30;99.90;;;;;;4996959;28;20085;-61
2023/03/25 10:54:11;;;;;;;3.47;1.13;;;11.20;99.90;;;;;;5000180;28;20445;-60
2023/03/25 10:56:50;;;;;;;5.18;1.10;;;11.50;99.90;;;;;;4997900;28;20042;-61
2023/03/25 10:59:29;;;;;;;4.30;1.02;;;11.60;99.90;;;;;;4996891;28;20031;-60
2023/03/25 11:01:56;;;;;;;3.22;1.20;;;11.80;99.70;;;;;;4997563;28;20042;-61
2023/03/25 11:04:35;;;;;;;5.05;0.90;;;12.10;98.70;;;;;;4996459;28;20021;-62
2023/03/25 11:07:04;;;;;;;6.00;1.27;;;12.30;96.80;;;;;;4998192;28;20104;-61
2023/03/25 11:09:31;;;;;;;3.75;1.00;;;12.40;95.60;;;;;;4997681;28;20034;-61
2023/03/25 11:12:03;;;;;;;8.20;1.45;;;12.60;96.70;;;;;;4998321;28;20129;-61
2023/03/25 11:14:29;;;;;;;4.47;1.20;;;12.60;92.80;;;;;;4996619;28;20023;-61
2023/03/25 11:17:04;;;;;;;4.45;1.13;;;12.60;94.50;;;;;;4997096;28;20510;-61
2023/03/25 11:19:38;;;;;;;6.80;1.00;;;12.70;93.30;;;;;;4998802;28;20053;-60
2023/03/25 11:22:17;;;;;;;6.63;1.00;;;12.80;93.20;;;;;;4998818;28;20031;-60
2023/03/25 11:24:46;;;;;;;5.20;1.25;;;12.80;91.90;;;;;;4995103;28;20058;-60
2023/03/25 11:27:22;;;;;;;3.72;0.98;;;12.70;93.20;;;;;;4997863;28;20042;-60
2023/03/25 11:29:55;;;;;;;3.10;0.88;;;12.60;96.10;;;;;;4997234;28;20030;-61
2023/03/25 11:32:37;;;;;;;3.67;1.00;;;12.20;94.90;;;;;;4997691;28;20116;-60
2023/03/25 11:35:16;;;;;;;3.05;0.85;;;11.70;95.80;;;;;;4996779;28;20038;-59
2023/03/25 11:37:45;;;;;;;1.35;0.60;;;10.30;99.90;;;;;;4998457;28;20081;-59
2023/03/25 11:40:16;;;;;;;2.80;0.80;;;9.00;99.90;;;;;;4996597;28;20096;-59
2023/03/25 11:42:48;;;;;;;;;;;8.40;99.90;;;;;;5002684;28;20030;-60
2023/03/25 11:45:23;;;;;;;;;;;8.40;99.90;;;;;;4999773;28;19960;-59
2023/03/25 11:47:49;;;;;;;3.17;1.20;;;8.50;99.90;;;;;;4997645;28;19920;-58
2023/03/25 11:50:26;;;;;;;3.03;1.00;;;8.80;99.90;;;;;;5000219;28;20530;-60
2023/03/25 11:53:00;;;;;;;3.35;0.88;;;9.10;99.90;;;;;;5000525;28;20042;-60
2023/03/25 11:55:42;;;;;;;4.70;1.10;;;9.40;99.90;;;;;;4998911;28;20026;-60
2023/03/25 11:58:18;;;;;;;3.65;1.48;;;9.60;99.90;;;;;;4999456;28;20444;-59
2023/03/25 12:00:49;;;;;;;4.25;0.90;;;9.70;99.90;;;;;;4994750;28;20058;-60
2023/03/25 12:03:25;;;;;;;2.58;0.80;;;9.70;99.90;;;;;;4998409;28;20061;-59
2023/03/25 12:06:22;;;;;;;2.83;0.95;;;9.80;99.90;;;;;;4994227;28;20037;-58
2023/03/25 12:08:58;;;;;;;2.38;0.70;;;9.90;99.90;;;;;;4996848;28;20073;-60
2023/03/25 12:11:31;;;;;;;8.27;1.23;;;9.90;99.90;;;;;;4995222;28;20038;-59
2023/03/25 12:14:14;;;;;;;1.23;0.60;;;9.80;99.90;;;;;;5005533;28;20065;-61
2023/03/25 12:16:51;;;;;;;2.08;1.15;;;9.60;99.90;;;;;;4997987;28;20040;-61
2023/03/25 12:19:27;;;;;;;1.88;0.90;;;9.50;99.90;;;;;;4995400;28;20023;-58
2023/03/25 12:22:07;;;;;;;3.35;0.88;;;9.40;99.90;;;;;;5003243;28;20509;-59
2023/03/25 12:24:57;;;;;;;1.42;0.80;;;9.30;99.90;;;;;;4996932;28;20196;-59
2023/03/25 12:27:41;;;;;;;6.32;0.80;;;9.20;99.90;;;;;;4998431;28;20030;-59
2023/03/25 12:30:06;;;;;;;1.38;0.63;;;9.10;99.90;;;;;;4996674;28;20034;-58
2023/03/25 12:32:48;;;;;;;0.52;0.30;;;9.00;99.90;;;;;;4997916;28;20592;-59
2023/03/25 12:35:32;;;;;;;;;;;8.80;99.90;;;;;;4996662;28;20499;-57
2023/03/25 12:38:15;;;;;;;2.15;0.60;;;8.60;99.90;;;;;;4994974;28;19916;-60
2023/03/25 12:41:08;;;;;;;2.92;0.70;;;7.90;99.90;;;;;;4996522;28;20062;-61
2023/03/25 12:44:00;;;;;;;0.90;0.40;;;7.00;99.90;;;;;;4998310;28;20061;-58
2023/03/25 12:46:32;;;;;;;0.38;0.38;;;6.10;99.90;;;;;;4995001;28;20491;-59
2023/03/25 12:49:16;;;;;;;1.98;0.43;;;5.70;99.90;;;;;;4999169;28;20128;-60
2023/03/25 12:52:01;;;;;;;1.60;1.20;;;5.50;99.90;;;;;;4985622;28;20094;-61
2023/03/25 12:54:47;;;;;;;2.25;1.55;;;5.60;99.90;;;;;;4997712;28;20026;-60
2023/03/25 12:57:34;;;;;;;1.45;0.63;;;5.80;99.90;;;;;;4996540;28;20045;-60
2023/03/25 13:00:15;;;;;;;1.88;0.55;;;5.90;99.90;;;;;;4996347;28;20501;-60
2023/03/25 13:03:11;;;;;;;1.02;0.63;;;6.00;99.90;;;;;;4997977;28;20037;-60
2023/03/25 13:05:43;;;;;;;1.25;0.50;;;5.80;99.90;;;;;;4993688;28;20101;-62
2023/03/25 13:08:22;;;;;;;0.57;0.40;;;5.70;99.90;;;;;;4996631;28;20033;-60
2023/03/25 13:10:57;;;;;;;1.40;0.60;;;5.80;99.90;;;;;;4997551;28;20045;-60
2023/03/25 13:13:25;;;;;;;1.58;1.02;;;6.00;99.90;;;;;;4995317;28;20745;-60
2023/03/25 13:16:13;;;;;;;2.35;0.80;;;6.30;99.90;;;;;;4996641;28;20014;-60
2023/03/25 13:18:46;;;;;;;1.23;0.70;;;6.90;99.90;;;;;;4999720;28;20034;-62